Time;durP1;ratioP1;P1;durP2;ratioP2;P2;SDS_P1;SDS_P2;PMS_P1;PMS_P2;Temp;Humidity;BMP_temperature;BMP_pressure;BME280_temperature;BME280_humidity;BME280_pressure;Samples;Min_cycle;Max_cycle;Signal;HPM_P1;HPM_P2
2022/11/07 00:02:16;;;;;;;42.73;26.27;;;11.90;99.90;;;;;;5116582;28;20439;-71
2022/11/07 00:04:42;;;;;;;35.37;26.90;;;11.90;99.90;;;;;;5098308;28;20208;-71
2022/11/07 00:07:08;;;;;;;37.03;27.53;;;11.80;99.90;;;;;;5116426;28;20415;-71
2022/11/07 00:09:34;;;;;;;38.17;26.73;;;11.80;99.90;;;;;;5098024;28;21000;-71
2022/11/07 00:11:59;;;;;;;38.67;28.93;;;11.80;99.90;;;;;;5116415;28;20178;-71
2022/11/07 00:14:25;;;;;;;40.97;27.27;;;11.80;99.90;;;;;;5116063;28;20572;-71
2022/11/07 00:16:51;;;;;;;40.77;27.20;;;11.80;99.90;;;;;;5116312;28;20172;-71
2022/11/07 00:19:18;;;;;;;36.03;27.67;;;11.70;99.90;;;;;;5097995;28;20534;-71
2022/11/07 00:21:45;;;;;;;44.00;25.92;;;11.70;99.90;;;;;;5116208;28;20546;-71
2022/11/07 00:24:11;;;;;;;37.80;26.63;;;11.70;99.90;;;;;;5115956;28;20223;-71
2022/11/07 00:26:37;;;;;;;39.20;27.13;;;11.60;99.90;;;;;;5097764;28;20939;-71
2022/11/07 00:29:04;;;;;;;35.77;25.23;;;11.60;99.90;;;;;;5116055;28;20471;-71
2022/11/07 00:31:30;;;;;;;40.40;26.50;;;11.60;99.90;;;;;;5116009;28;20181;-71
2022/11/07 00:33:56;;;;;;;40.30;28.07;;;11.60;99.90;;;;;;5097738;28;20428;-71
2022/11/07 00:36:27;;;;;;;38.10;27.47;;;11.50;99.90;;;;;;5115768;28;20790;-71
2022/11/07 00:38:54;;;;;;;42.78;29.20;;;11.50;99.90;;;;;;5097689;28;20427;-71
2022/11/07 00:41:21;;;;;;;40.42;27.95;;;11.50;99.90;;;;;;5115753;28;20671;-71
2022/11/07 00:43:47;;;;;;;38.27;27.80;;;11.50;99.90;;;;;;5116001;28;20215;-71
2022/11/07 00:46:14;;;;;;;40.30;28.93;;;11.40;99.90;;;;;;5115579;28;20505;-71
2022/11/07 00:48:40;;;;;;;41.93;27.47;;;11.50;99.90;;;;;;5115740;28;20467;-71
2022/11/07 00:51:08;;;;;;;46.17;28.33;;;11.50;99.90;;;;;;5115485;28;20419;-71
2022/11/07 00:53:34;;;;;;;46.85;30.60;;;11.40;99.90;;;;;;5097268;28;20420;-71
2022/11/07 00:56:01;;;;;;;42.80;27.20;;;11.50;99.90;;;;;;5097244;28;20199;-71
2022/11/07 00:58:27;;;;;;;40.05;27.35;;;11.50;99.90;;;;;;5115718;28;20183;-71
2022/11/07 01:00:53;;;;;;;42.83;29.23;;;11.50;99.90;;;;;;5097076;28;20274;-71
2022/11/07 01:06:03;;;;;;;50.78;34.67;;;11.40;99.90;;;;;;5115311;28;20312;-71
2022/11/07 01:08:29;;;;;;;57.20;37.50;;;11.40;99.90;;;;;;5097023;28;20229;-71
2022/11/07 01:10:56;;;;;;;59.50;37.67;;;11.40;99.90;;;;;;5115260;28;20432;-71
2022/11/07 01:13:22;;;;;;;50.88;34.05;;;11.40;99.90;;;;;;5115201;28;20411;-71
2022/11/07 01:15:48;;;;;;;41.78;30.02;;;11.40;99.90;;;;;;5115116;28;20203;-71
2022/11/07 01:18:13;;;;;;;53.33;32.67;;;11.40;99.90;;;;;;5115063;28;20526;-71
2022/11/07 01:20:40;;;;;;;45.60;30.90;;;11.30;99.90;;;;;;5114985;28;20252;-71
2022/11/07 01:23:06;;;;;;;44.80;31.23;;;11.30;99.90;;;;;;5114844;28;20172;-71
2022/11/07 01:25:32;;;;;;;44.05;29.00;;;11.30;99.90;;;;;;5093137;28;20457;-71
2022/11/07 01:27:58;;;;;;;50.57;30.20;;;11.30;99.90;;;;;;5093120;28;20196;-71
2022/11/07 01:30:23;;;;;;;47.90;32.00;;;11.30;99.90;;;;;;5093090;28;20563;-71
2022/11/07 01:32:49;;;;;;;47.10;31.63;;;11.30;99.90;;;;;;5094438;28;20285;-71
2022/11/07 01:35:15;;;;;;;41.73;30.17;;;11.30;99.90;;;;;;5093057;28;20192;-71
2022/11/07 01:37:40;;;;;;;50.13;31.43;;;11.30;99.90;;;;;;5094391;28;20404;-71
2022/11/07 01:40:06;;;;;;;44.57;31.00;;;11.40;99.90;;;;;;5094239;28;20196;-71
2022/11/07 01:42:32;;;;;;;47.67;33.00;;;11.30;99.90;;;;;;5094260;28;20183;-71
2022/11/07 01:44:59;;;;;;;43.20;30.47;;;11.40;99.90;;;;;;5094123;28;20208;-71
2022/11/07 01:47:29;;;;;;;48.00;31.03;;;11.40;99.90;;;;;;5094244;28;20207;-71
2022/11/07 01:49:56;;;;;;;47.35;31.55;;;11.40;99.90;;;;;;5094684;28;20481;-71
2022/11/07 01:52:30;;;;;;;43.53;30.07;;;11.40;99.90;;;;;;5092802;28;20267;-71
2022/11/07 01:55:03;;;;;;;41.43;28.33;;;11.40;99.90;;;;;;5094558;28;20500;-71
2022/11/07 01:57:34;;;;;;;42.58;29.90;;;11.40;99.90;;;;;;5094163;28;20408;-71
2022/11/07 02:00:03;;;;;;;40.70;29.25;;;11.40;99.90;;;;;;5093961;28;20291;-71
2022/11/07 02:02:30;;;;;;;44.97;29.50;;;11.40;99.90;;;;;;5094064;28;20164;-71
2022/11/07 02:04:58;;;;;;;41.17;28.38;;;11.40;99.90;;;;;;5092817;28;20212;-71
2022/11/07 02:07:24;;;;;;;44.78;28.67;;;11.40;99.90;;;;;;5093989;28;20587;-71
2022/11/07 02:09:53;;;;;;;36.33;27.58;;;11.40;99.90;;;;;;5094252;28;20227;-71
2022/11/07 02:12:21;;;;;;;40.25;27.60;;;11.40;99.90;;;;;;5093919;28;20648;-71
2022/11/07 02:14:47;;;;;;;35.65;26.38;;;11.40;99.90;;;;;;5094100;28;20338;-71
2022/11/07 02:17:14;;;;;;;39.50;27.33;;;11.40;99.90;;;;;;5093790;28;20202;-71
2022/11/07 02:19:47;;;;;;;35.63;26.00;;;11.40;99.90;;;;;;5094292;28;20200;-71
2022/11/07 02:22:18;;;;;;;43.17;27.63;;;11.30;99.90;;;;;;5093813;28;20160;-71
2022/11/07 02:24:45;;;;;;;42.73;26.50;;;11.30;99.90;;;;;;5106986;28;20227;-71
2022/11/07 02:27:17;;;;;;;34.97;25.20;;;11.30;99.90;;;;;;5113964;28;20408;-71
2022/11/07 02:29:45;;;;;;;49.10;30.92;;;11.30;99.90;;;;;;5095839;28;20317;-73
2022/11/07 02:32:11;;;;;;;45.85;28.55;;;11.30;99.90;;;;;;5114021;28;20174;-71
2022/11/07 02:34:37;;;;;;;32.30;22.97;;;11.30;99.90;;;;;;5114266;28;20290;-71
2022/11/07 02:37:06;;;;;;;28.10;20.60;;;11.30;99.90;;;;;;5113982;28;20396;-71
2022/11/07 02:39:32;;;;;;;27.13;19.35;;;11.30;99.90;;;;;;5114188;28;20295;-71
2022/11/07 02:41:59;;;;;;;23.70;20.07;;;11.30;99.90;;;;;;5113938;28;20211;-71
2022/11/07 02:44:27;;;;;;;30.67;21.13;;;11.30;99.90;;;;;;5114037;28;20762;-71
2022/11/07 02:46:52;;;;;;;27.10;19.40;;;11.30;99.90;;;;;;5113984;28;20400;-71
2022/11/07 02:49:18;;;;;;;30.63;21.00;;;11.30;99.90;;;;;;5095718;28;20497;-71
2022/11/07 02:51:43;;;;;;;27.20;21.17;;;11.30;99.90;;;;;;5113957;28;20175;-71
2022/11/07 02:54:09;;;;;;;27.83;21.47;;;11.40;99.90;;;;;;5114016;28;20180;-71
2022/11/07 02:56:34;;;;;;;32.23;22.20;;;11.30;99.90;;;;;;5113879;28;20228;-71
2022/11/07 02:59:00;;;;;;;28.43;20.10;;;11.30;99.90;;;;;;5114039;28;20180;-71
2022/11/07 03:01:26;;;;;;;34.80;22.90;;;11.30;99.90;;;;;;5113590;28;20252;-71
2022/11/07 03:03:51;;;;;;;33.47;21.43;;;11.30;99.90;;;;;;5114036;28;20219;-71
2022/11/07 03:06:20;;;;;;;30.90;21.60;;;11.30;99.90;;;;;;5113671;28;20250;-71
2022/11/07 03:08:46;;;;;;;31.57;23.53;;;11.30;99.90;;;;;;5113874;28;20596;-71
2022/11/07 03:11:12;;;;;;;30.53;22.27;;;11.30;99.90;;;;;;5095350;28;20430;-71
2022/11/07 03:13:38;;;;;;;29.52;22.40;;;11.30;99.90;;;;;;5095460;28;20180;-71
2022/11/07 03:16:06;;;;;;;27.27;21.40;;;11.30;99.90;;;;;;5113467;28;20196;-71
2022/11/07 03:18:32;;;;;;;33.00;23.07;;;11.30;99.90;;;;;;5113723;28;20176;-70
2022/11/07 03:20:58;;;;;;;32.38;22.63;;;11.30;99.90;;;;;;5113489;28;20932;-71
2022/11/07 03:23:24;;;;;;;30.20;22.17;;;11.40;99.90;;;;;;5113444;28;20185;-71
2022/11/07 03:25:50;;;;;;;27.80;21.37;;;11.40;99.90;;;;;;5095697;28;20435;-71
2022/11/07 03:28:15;;;;;;;29.47;22.20;;;11.40;99.90;;;;;;5117244;28;20608;-71
2022/11/07 03:30:41;;;;;;;27.93;21.50;;;11.40;99.90;;;;;;5117148;28;20693;-71
2022/11/07 03:33:07;;;;;;;32.50;23.57;;;11.50;99.90;;;;;;5117231;28;20520;-71
2022/11/07 03:35:32;;;;;;;28.77;21.57;;;11.50;99.90;;;;;;5117054;28;20237;-71
2022/11/07 03:37:58;;;;;;;31.07;20.97;;;11.50;99.90;;;;;;5117131;28;20179;-71
2022/11/07 03:40:23;;;;;;;29.30;21.20;;;11.50;99.90;;;;;;5116923;28;20183;-72
2022/11/07 03:42:49;;;;;;;31.53;21.40;;;11.60;99.90;;;;;;5098679;28;20184;-71
2022/11/07 03:45:15;;;;;;;28.60;21.23;;;11.60;99.90;;;;;;5098583;28;20202;-71
2022/11/07 03:47:43;;;;;;;34.70;22.37;;;11.60;99.90;;;;;;5098499;28;20663;-71
2022/11/07 03:50:11;;;;;;;32.63;22.90;;;11.60;99.90;;;;;;5098383;28;20474;-71
2022/11/07 03:52:37;;;;;;;35.87;23.50;;;11.60;99.90;;;;;;5116647;28;20541;-71
2022/11/07 03:55:03;;;;;;;30.57;22.30;;;11.70;99.90;;;;;;5116605;28;20447;-71
2022/11/07 03:57:28;;;;;;;34.60;23.40;;;11.60;99.90;;;;;;5116928;28;20178;-71
2022/11/07 03:59:54;;;;;;;29.37;22.70;;;11.60;99.90;;;;;;5117053;28;20496;-71
2022/11/07 04:02:21;;;;;;;31.40;22.40;;;11.70;99.90;;;;;;5098314;28;20175;-71
2022/11/07 04:04:47;;;;;;;30.85;22.50;;;11.70;99.90;;;;;;5116851;28;20199;-71
2022/11/07 04:07:13;;;;;;;29.97;21.70;;;11.70;99.90;;;;;;5116519;28;20236;-71
2022/11/07 04:09:38;;;;;;;38.20;22.80;;;11.70;99.90;;;;;;5098013;28;20703;-71
2022/11/07 04:17:32;;;;;;;27.40;20.33;;;11.70;99.90;;;;;;5116684;28;20400;-71
2022/11/07 04:19:58;;;;;;;30.57;21.93;;;11.70;99.90;;;;;;5098162;28;20443;-71
2022/11/07 04:22:24;;;;;;;33.67;21.60;;;11.70;99.90;;;;;;5097914;28;20228;-72
2022/11/07 04:24:50;;;;;;;30.90;21.50;;;11.70;99.90;;;;;;5116157;28;20239;-71
2022/11/07 04:30:17;;;;;;;28.03;19.90;;;11.70;99.90;;;;;;5116652;28;20234;-71
2022/11/07 04:33:03;;;;;;;31.50;21.00;;;11.70;99.90;;;;;;5097998;28;20457;-71
2022/11/07 04:35:31;;;;;;;31.70;20.33;;;11.70;99.90;;;;;;5115419;28;21015;-71
2022/11/07 04:37:57;;;;;;;30.27;20.88;;;11.70;99.90;;;;;;5114798;28;20400;-71
2022/11/07 04:40:23;;;;;;;33.67;20.52;;;11.70;99.90;;;;;;5097470;28;20191;-71
2022/11/07 04:42:49;;;;;;;28.37;20.53;;;11.70;99.90;;;;;;5115764;28;20171;-71
2022/11/07 04:45:16;;;;;;;35.38;20.45;;;11.70;99.90;;;;;;5097411;28;20196;-71
2022/11/07 04:47:41;;;;;;;27.83;20.10;;;11.70;99.90;;;;;;5115563;28;20179;-72
2022/11/07 04:50:11;;;;;;;26.67;19.70;;;11.70;99.90;;;;;;5097155;28;20476;-71
2022/11/07 04:52:36;;;;;;;28.97;19.67;;;11.70;99.90;;;;;;5115517;28;20522;-71
2022/11/07 04:55:03;;;;;;;28.80;20.17;;;11.70;99.90;;;;;;5097137;28;20568;-71
2022/11/07 04:57:28;;;;;;;29.97;21.30;;;11.80;99.90;;;;;;5097172;28;20168;-71
2022/11/07 04:59:54;;;;;;;26.20;19.10;;;11.80;99.90;;;;;;5096802;28;20467;-71
2022/11/07 05:02:23;;;;;;;29.83;20.30;;;11.80;99.90;;;;;;5097186;28;20211;-71
2022/11/07 05:04:49;;;;;;;24.93;18.00;;;11.80;99.90;;;;;;5115818;28;20522;-71
2022/11/07 05:07:15;;;;;;;26.02;20.20;;;11.80;99.90;;;;;;5097000;28;20405;-71
2022/11/07 05:09:40;;;;;;;28.87;20.43;;;11.80;99.90;;;;;;5115390;28;20222;-71
2022/11/07 05:12:06;;;;;;;25.10;18.40;;;11.80;99.90;;;;;;5096972;28;20183;-71
2022/11/07 05:14:32;;;;;;;28.90;19.27;;;11.90;99.90;;;;;;5115285;28;20271;-71
2022/11/07 05:16:58;;;;;;;26.23;18.73;;;11.90;99.90;;;;;;5115206;28;20176;-71
2022/11/07 05:19:23;;;;;;;29.73;21.10;;;11.90;99.90;;;;;;5115319;28;20216;-71
2022/11/07 05:24:33;;;;;;;31.27;21.27;;;11.90;99.90;;;;;;5114452;28;20238;-71
2022/11/07 05:26:58;;;;;;;31.17;20.23;;;11.90;99.90;;;;;;5115033;28;20396;-71
2022/11/07 05:29:24;;;;;;;33.23;20.37;;;11.90;99.90;;;;;;5114752;28;20227;-71
2022/11/07 05:31:50;;;;;;;29.33;20.37;;;11.90;99.90;;;;;;5114242;28;20205;-71
2022/11/07 05:34:15;;;;;;;24.43;18.23;;;12.00;99.90;;;;;;5113997;28;20183;-71
2022/11/07 05:36:41;;;;;;;26.07;18.10;;;12.00;99.90;;;;;;5114054;28;20176;-71
2022/11/07 05:39:07;;;;;;;31.67;19.87;;;12.00;99.90;;;;;;5113830;28;20211;-71
2022/11/07 05:41:34;;;;;;;28.03;19.83;;;12.00;99.90;;;;;;5114069;28;20171;-71
2022/11/07 05:44:01;;;;;;;26.87;20.20;;;12.00;99.90;;;;;;5106701;28;20180;-71
2022/11/07 05:46:26;;;;;;;27.67;20.37;;;12.00;99.90;;;;;;5113542;28;20420;-71
2022/11/07 05:48:52;;;;;;;31.40;18.57;;;12.00;99.90;;;;;;5112018;28;20820;-71
2022/11/07 05:51:18;;;;;;;30.70;19.53;;;12.00;99.90;;;;;;5113042;28;20191;-71
2022/11/07 05:53:43;;;;;;;27.10;19.00;;;12.00;99.90;;;;;;5114391;28;20659;-71
2022/11/07 05:56:09;;;;;;;26.73;17.70;;;12.00;99.90;;;;;;5114373;28;20583;-71
2022/11/07 05:58:34;;;;;;;26.60;19.07;;;12.00;99.90;;;;;;5113273;28;20507;-71
2022/11/07 06:01:02;;;;;;;22.83;18.17;;;12.00;99.90;;;;;;5112438;28;20266;-71
2022/11/07 06:03:27;;;;;;;25.30;17.57;;;12.00;99.90;;;;;;5112981;28;20663;-71
2022/11/07 06:05:53;;;;;;;22.87;15.57;;;12.00;99.90;;;;;;5113800;28;20464;-71
2022/11/07 06:08:19;;;;;;;26.73;17.93;;;12.00;99.90;;;;;;5095739;28;20272;-71
2022/11/07 06:10:44;;;;;;;25.60;16.50;;;12.00;99.90;;;;;;5112783;28;20200;-71
2022/11/07 06:13:12;;;;;;;24.00;16.90;;;12.10;99.90;;;;;;5112604;28;20271;-71
2022/11/07 06:15:40;;;;;;;23.73;17.70;;;12.10;99.90;;;;;;5113597;28;20546;-71
2022/11/07 06:18:09;;;;;;;24.43;16.50;;;12.00;99.90;;;;;;5114069;28;20408;-71
2022/11/07 06:20:35;;;;;;;24.50;17.13;;;12.10;99.90;;;;;;5095149;28;20455;-71
2022/11/07 06:23:02;;;;;;;23.80;17.00;;;12.10;99.90;;;;;;5095251;28;20455;-71
2022/11/07 06:25:28;;;;;;;25.20;16.77;;;12.10;99.90;;;;;;5113821;28;20714;-71
2022/11/07 06:27:59;;;;;;;25.77;16.27;;;12.10;99.90;;;;;;5113041;28;20388;-71
2022/11/07 06:30:25;;;;;;;26.17;17.93;;;12.20;99.90;;;;;;5113287;28;20447;-71
2022/11/07 06:32:51;;;;;;;26.00;16.90;;;12.20;99.90;;;;;;5114365;28;20438;-71
2022/11/07 06:35:16;;;;;;;26.33;16.93;;;12.20;99.90;;;;;;5107277;28;20456;-71
2022/11/07 06:37:42;;;;;;;25.97;18.87;;;12.20;99.90;;;;;;5071918;28;20301;-71
2022/11/07 06:40:08;;;;;;;25.50;18.40;;;12.20;99.90;;;;;;5079838;28;22006;-71
2022/11/07 06:42:34;;;;;;;31.63;19.80;;;12.20;99.90;;;;;;5090984;28;20172;-71
2022/11/07 06:44:59;;;;;;;30.77;18.40;;;12.30;99.90;;;;;;5096911;28;21034;-71
2022/11/07 06:47:25;;;;;;;29.53;19.50;;;12.30;99.90;;;;;;5111210;28;20183;-71
2022/11/07 06:49:51;;;;;;;32.70;20.33;;;12.30;99.90;;;;;;5109589;28;20220;-72
2022/11/07 06:52:16;;;;;;;32.97;21.87;;;12.40;99.90;;;;;;5109804;28;20685;-71
2022/11/07 06:54:43;;;;;;;30.40;19.27;;;12.40;99.90;;;;;;5107673;28;20652;-72
2022/11/07 06:57:09;;;;;;;30.27;18.80;;;12.40;99.90;;;;;;5109523;28;20245;-71
2022/11/07 06:59:34;;;;;;;29.93;18.20;;;12.40;99.90;;;;;;5109606;28;20477;-71
2022/11/07 07:02:00;;;;;;;29.50;17.83;;;12.40;99.90;;;;;;5093300;28;20426;-71
2022/11/07 07:04:26;;;;;;;25.43;17.10;;;12.40;99.90;;;;;;5094622;28;20581;-72
2022/11/07 07:06:52;;;;;;;27.10;18.20;;;12.40;99.90;;;;;;5114857;28;20400;-71
2022/11/07 07:09:17;;;;;;;25.30;17.43;;;12.50;99.90;;;;;;5117135;28;20207;-71
2022/11/07 07:11:44;;;;;;;29.30;18.50;;;12.50;99.90;;;;;;5098144;28;20550;-71
2022/11/07 07:14:10;;;;;;;27.10;17.73;;;12.50;99.90;;;;;;5098443;28;20186;-71
2022/11/07 07:16:36;;;;;;;31.13;19.37;;;12.50;99.90;;;;;;5115225;28;20920;-71
2022/11/07 07:19:02;;;;;;;31.13;19.83;;;12.60;99.90;;;;;;5116970;28;20431;-71
2022/11/07 07:21:28;;;;;;;27.63;19.30;;;12.60;99.90;;;;;;5098769;28;20916;-71
2022/11/07 07:23:54;;;;;;;30.40;19.73;;;12.60;99.90;;;;;;5097743;28;20513;-71
2022/11/07 07:26:19;;;;;;;32.10;20.33;;;12.70;99.90;;;;;;5096879;28;20184;-71
2022/11/07 07:28:45;;;;;;;29.57;19.57;;;12.70;99.90;;;;;;5114729;28;20214;-71
2022/11/07 07:31:14;;;;;;;30.13;19.57;;;12.70;99.90;;;;;;5114232;28;20809;-71
2022/11/07 07:33:40;;;;;;;27.47;17.97;;;12.70;99.90;;;;;;5095496;28;20428;-71
2022/11/07 07:36:07;;;;;;;28.90;20.00;;;12.80;99.90;;;;;;5111712;27;20450;-71
2022/11/07 07:38:33;;;;;;;33.30;21.30;;;12.80;99.90;;;;;;5086031;28;20500;-71
2022/11/07 07:40:58;;;;;;;30.57;19.80;;;12.80;99.90;;;;;;5068230;28;20444;-71
2022/11/07 07:43:25;;;;;;;33.03;19.87;;;12.80;99.90;;;;;;5083423;28;20228;-72
2022/11/07 07:45:52;;;;;;;33.10;21.17;;;12.80;99.90;;;;;;5068071;28;20196;-72
2022/11/07 07:48:17;;;;;;;32.37;21.53;;;12.90;99.90;;;;;;5085748;28;20463;-72
2022/11/07 07:50:43;;;;;;;27.17;19.13;;;12.90;99.90;;;;;;5090522;28;20451;-71
2022/11/07 07:53:08;;;;;;;36.57;22.93;;;12.90;99.90;;;;;;5086115;28;20208;-71
2022/11/07 07:55:35;;;;;;;32.87;20.07;;;13.00;99.90;;;;;;5082855;28;20204;-71
2022/11/07 07:58:00;;;;;;;29.30;20.00;;;13.00;99.90;;;;;;5073610;28;20270;-71
2022/11/07 08:00:26;;;;;;;36.53;22.03;;;13.00;99.90;;;;;;5108968;28;20554;-71
2022/11/07 08:02:59;;;;;;;33.27;21.80;;;13.10;99.90;;;;;;5096740;28;20543;-71
2022/11/07 08:05:25;;;;;;;32.53;20.13;;;13.10;99.90;;;;;;5097191;28;20191;-71
2022/11/07 08:07:51;;;;;;;26.47;18.30;;;13.10;99.90;;;;;;5114654;28;20501;-70
2022/11/07 08:10:18;;;;;;;27.37;20.30;;;13.20;99.90;;;;;;5095560;28;20216;-71
2022/11/07 08:12:45;;;;;;;27.23;19.70;;;13.20;99.90;;;;;;5113614;28;20211;-72
2022/11/07 08:15:12;;;;;;;32.47;20.47;;;13.20;99.90;;;;;;5113349;28;21039;-71
2022/11/07 08:17:38;;;;;;;30.00;18.60;;;13.30;99.90;;;;;;5114327;28;20404;-71
2022/11/07 08:20:04;;;;;;;26.23;17.73;;;13.30;99.90;;;;;;5110812;27;20467;-71
2022/11/07 08:22:30;;;;;;;26.23;18.50;;;13.30;99.90;;;;;;5092856;28;20798;-71
2022/11/07 08:24:55;;;;;;;31.10;19.70;;;13.30;99.90;;;;;;5107327;28;20476;-71
2022/11/07 08:27:21;;;;;;;33.00;20.77;;;13.40;99.90;;;;;;5099788;28;20669;-70
2022/11/07 08:29:46;;;;;;;28.63;19.90;;;13.40;99.90;;;;;;5114453;27;20224;-71
2022/11/07 08:32:12;;;;;;;25.83;18.03;;;13.40;99.90;;;;;;5115382;28;20168;-71
2022/11/07 08:34:38;;;;;;;29.10;18.50;;;13.40;99.90;;;;;;5115937;28;20588;-71
2022/11/07 08:37:04;;;;;;;31.20;19.20;;;13.40;99.90;;;;;;5097441;28;20167;-71
2022/11/07 08:39:29;;;;;;;32.00;19.47;;;13.40;99.90;;;;;;5094930;28;20475;-71
2022/11/07 08:41:55;;;;;;;29.90;18.43;;;13.50;99.90;;;;;;5111197;27;20425;-71
2022/11/07 08:44:20;;;;;;;27.90;18.17;;;13.50;99.90;;;;;;5111090;27;20231;-70
2022/11/07 08:46:46;;;;;;;32.60;19.37;;;13.50;99.90;;;;;;5093533;28;20179;-71
2022/11/07 08:49:11;;;;;;;30.10;20.50;;;13.50;99.90;;;;;;5109593;28;20211;-71
2022/11/07 08:51:37;;;;;;;30.10;22.00;;;13.50;99.90;;;;;;5113359;28;20212;-71
2022/11/07 08:54:03;;;;;;;30.27;18.80;;;13.50;99.90;;;;;;5111874;28;20180;-72
2022/11/07 08:56:29;;;;;;;28.20;19.00;;;13.50;99.90;;;;;;5112156;28;20247;-71
2022/11/07 08:58:55;;;;;;;27.97;18.80;;;13.50;99.90;;;;;;5089735;28;20180;-71
2022/11/07 09:01:20;;;;;;;34.23;20.90;;;13.50;99.90;;;;;;5108442;28;20806;-71
2022/11/07 09:03:46;;;;;;;34.57;19.70;;;13.50;99.90;;;;;;5110983;28;20628;-71
2022/11/07 09:06:12;;;;;;;29.83;19.83;;;13.60;99.90;;;;;;5111093;28;20188;-71
2022/11/07 09:08:37;;;;;;;32.20;20.30;;;13.60;99.90;;;;;;5108533;28;20225;-71
2022/11/07 09:11:04;;;;;;;34.83;22.17;;;13.60;99.90;;;;;;5094387;28;20206;-71
2022/11/07 09:13:31;;;;;;;28.90;18.73;;;13.60;99.90;;;;;;5093372;28;20211;-71
2022/11/07 09:16:02;;;;;;;37.13;21.90;;;13.60;99.90;;;;;;5092469;28;20425;-71
2022/11/07 09:18:28;;;;;;;33.80;20.60;;;13.60;99.90;;;;;;5095913;28;20435;-71
2022/11/07 09:20:54;;;;;;;35.20;23.77;;;13.60;99.90;;;;;;5114091;28;20804;-71
2022/11/07 09:23:21;;;;;;;31.40;20.97;;;13.60;99.90;;;;;;5113886;28;20428;-71
2022/11/07 09:25:46;;;;;;;31.93;19.77;;;13.60;99.90;;;;;;5111435;28;20550;-71
2022/11/07 09:28:13;;;;;;;31.70;19.10;;;13.60;99.90;;;;;;5094428;28;20432;-71
2022/11/07 09:30:38;;;;;;;29.40;18.70;;;13.60;99.90;;;;;;5095306;28;20195;-72
2022/11/07 09:33:04;;;;;;;32.13;19.70;;;13.60;99.90;;;;;;5111137;28;20493;-71
2022/11/07 09:35:29;;;;;;;25.90;17.90;;;13.60;99.90;;;;;;5113433;28;20589;-71
2022/11/07 09:37:55;;;;;;;26.00;16.10;;;13.60;99.90;;;;;;5110253;28;20191;-70
2022/11/07 09:40:22;;;;;;;34.50;18.10;;;13.60;99.90;;;;;;5091221;28;20636;-71
2022/11/07 09:43:27;;;;;;;26.57;17.67;;;13.70;99.90;;;;;;5110804;28;20659;-71
2022/11/07 09:46:27;;;;;;;29.93;18.53;;;13.70;99.90;;;;;;5089802;28;20484;-70
2022/11/07 09:49:13;;;;;;;28.73;19.10;;;13.70;99.90;;;;;;5094992;28;20478;-71
2022/11/07 09:52:04;;;;;;;34.67;20.20;;;13.70;99.90;;;;;;5109753;28;20458;-71
2022/11/07 09:54:36;;;;;;;26.63;17.53;;;13.70;99.90;;;;;;5036054;28;20526;-71
2022/11/07 09:57:02;;;;;;;24.10;16.20;;;13.70;99.90;;;;;;5078362;28;20536;-70
2022/11/07 09:59:43;;;;;;;26.97;17.60;;;13.60;99.90;;;;;;5079806;28;21000;-71
2022/11/07 10:02:14;;;;;;;31.60;17.80;;;13.70;99.90;;;;;;5091752;28;20814;-71
2022/11/07 10:04:40;;;;;;;28.60;18.47;;;13.70;99.90;;;;;;5091650;28;20443;-71
2022/11/07 10:07:23;;;;;;;32.23;18.57;;;13.70;99.90;;;;;;5111957;28;20487;-71
2022/11/07 10:09:56;;;;;;;28.60;18.40;;;13.70;99.90;;;;;;5111032;28;20981;-71
2022/11/07 10:12:46;;;;;;;28.17;19.83;;;13.70;99.90;;;;;;5093619;28;20588;-71
2022/11/07 10:15:29;;;;;;;29.63;18.87;;;13.70;99.90;;;;;;5112359;28;20472;-71
2022/11/07 10:18:15;;;;;;;28.13;19.20;;;13.70;99.90;;;;;;5112067;28;20934;-71
2022/11/07 10:21:04;;;;;;;29.07;18.20;;;13.70;99.90;;;;;;5111381;28;20420;-71
2022/11/07 10:23:36;;;;;;;31.07;18.80;;;13.80;99.90;;;;;;5110699;28;20483;-71
2022/11/07 10:26:08;;;;;;;30.80;19.10;;;13.80;99.90;;;;;;5110580;28;20827;-71
2022/11/07 10:28:43;;;;;;;32.40;20.97;;;13.80;99.90;;;;;;5091560;28;20528;-71
2022/11/07 10:31:10;;;;;;;34.90;20.50;;;13.80;99.90;;;;;;5085339;28;20455;-71
2022/11/07 10:33:38;;;;;;;31.70;20.73;;;13.80;99.90;;;;;;5089127;28;20503;-70
2022/11/07 10:36:16;;;;;;;34.00;21.00;;;13.80;99.90;;;;;;5087680;28;20437;-70
2022/11/07 10:38:42;;;;;;;38.63;23.33;;;13.90;99.90;;;;;;5092115;28;20520;-70
2022/11/07 10:41:23;;;;;;;36.60;21.33;;;13.90;99.90;;;;;;5073055;28;20512;-70
2022/11/07 10:44:03;;;;;;;33.60;21.03;;;13.90;99.90;;;;;;5091583;28;20203;-70
2022/11/07 10:46:41;;;;;;;35.30;22.67;;;13.90;99.90;;;;;;5085696;28;20424;-70
2022/11/07 10:49:17;;;;;;;36.07;21.97;;;13.90;99.90;;;;;;5090663;28;20494;-70
2022/11/07 10:51:43;;;;;;;30.27;19.30;;;13.90;99.90;;;;;;5094412;28;20859;-70
2022/11/07 10:54:26;;;;;;;33.77;20.33;;;13.90;99.90;;;;;;5113511;28;20536;-70
2022/11/07 10:57:07;;;;;;;36.50;21.90;;;14.00;99.90;;;;;;5112659;28;20418;-70
2022/11/07 10:59:35;;;;;;;39.73;23.00;;;14.00;99.90;;;;;;5111929;28;20451;-70
2022/11/07 11:02:01;;;;;;;28.93;20.47;;;14.00;99.90;;;;;;5113770;27;20427;-70
2022/11/07 11:04:30;;;;;;;34.43;21.67;;;14.00;99.90;;;;;;5117065;27;20456;-70
2022/11/07 11:07:04;;;;;;;37.53;22.40;;;14.00;99.90;;;;;;5114447;28;20423;-70
2022/11/07 11:09:32;;;;;;;35.57;23.07;;;14.00;99.90;;;;;;5098483;28;20485;-71
2022/11/07 11:12:06;;;;;;;39.10;22.40;;;14.00;99.90;;;;;;5115792;28;20424;-71
2022/11/07 11:14:32;;;;;;;37.43;22.77;;;14.10;99.90;;;;;;5113153;28;20475;-71
2022/11/07 11:16:58;;;;;;;34.07;22.50;;;14.10;99.90;;;;;;5096633;28;20499;-71
2022/11/07 11:19:39;;;;;;;33.33;20.47;;;14.10;99.90;;;;;;5105497;28;20440;-71
2022/11/07 11:22:14;;;;;;;31.47;20.60;;;14.10;99.90;;;;;;5109366;28;20173;-71
2022/11/07 11:24:40;;;;;;;33.23;19.77;;;14.10;99.90;;;;;;5095924;28;20528;-71
2022/11/07 11:27:18;;;;;;;31.93;19.87;;;14.10;99.90;;;;;;5116855;28;20392;-71
2022/11/07 11:29:49;;;;;;;40.40;22.50;;;14.10;99.90;;;;;;5112598;28;20227;-71
2022/11/07 11:32:28;;;;;;;35.93;21.83;;;14.10;99.90;;;;;;5111391;28;20422;-71
2022/11/07 11:35:27;;;;;;;29.97;19.73;;;14.10;99.90;;;;;;5102291;28;20788;-71
2022/11/07 11:38:27;;;;;;;32.37;20.30;;;14.10;99.90;;;;;;5106731;28;20417;-71
2022/11/07 11:41:01;;;;;;;33.40;21.77;;;14.10;99.90;;;;;;5094682;28;21040;-71
2022/11/07 11:43:53;;;;;;;41.83;23.17;;;14.10;99.90;;;;;;5103845;28;20432;-70
2022/11/07 11:46:51;;;;;;;35.37;21.17;;;14.10;99.90;;;;;;5103257;28;20435;-71
2022/11/07 11:49:23;;;;;;;39.30;23.53;;;14.00;99.90;;;;;;5072324;28;20839;-71
2022/11/07 11:51:57;;;;;;;35.77;22.67;;;14.00;99.90;;;;;;5104448;28;20492;-71
2022/11/07 11:54:23;;;;;;;39.30;23.70;;;14.00;99.90;;;;;;5109239;28;20459;-71
2022/11/07 11:56:55;;;;;;;41.30;24.30;;;14.00;99.90;;;;;;5093741;28;20420;-71
2022/11/07 11:59:42;;;;;;;33.03;21.43;;;14.00;99.90;;;;;;5093064;28;20501;-71
2022/11/07 12:02:49;;;;;;;38.07;23.40;;;14.00;99.90;;;;;;5108622;28;20482;-71
2022/11/07 12:05:36;;;;;;;41.77;25.10;;;14.00;99.90;;;;;;5103178;28;20526;-71
2022/11/07 12:08:01;;;;;;;43.30;23.80;;;14.00;99.90;;;;;;5101101;28;20432;-71
2022/11/07 12:10:31;;;;;;;37.87;21.80;;;13.90;99.90;;;;;;5099302;28;20830;-71
2022/11/07 12:13:09;;;;;;;37.67;22.50;;;13.90;99.90;;;;;;5092205;28;20168;-71
2022/11/07 12:15:55;;;;;;;41.33;22.93;;;13.90;99.90;;;;;;5087834;28;20858;-70
2022/11/07 12:18:47;;;;;;;36.73;22.73;;;13.90;99.90;;;;;;5091542;28;20436;-70
2022/11/07 12:21:33;;;;;;;35.87;21.40;;;13.80;99.90;;;;;;5109972;28;20452;-71
2022/11/07 12:24:36;;;;;;;34.53;21.60;;;13.80;99.90;;;;;;5104361;28;20518;-70
2022/11/07 12:27:10;;;;;;;59.13;31.70;;;13.80;99.90;;;;;;5108950;28;20485;-71
2022/11/07 12:30:14;;;;;;;45.20;30.93;;;13.80;99.90;;;;;;5094508;28;20475;-71
2022/11/07 12:32:42;;;;;;;40.00;24.43;;;13.80;99.90;;;;;;5107558;28;20435;-71
2022/11/07 12:35:36;;;;;;;33.07;21.87;;;13.80;99.90;;;;;;5093298;28;20439;-71
2022/11/07 12:38:20;;;;;;;51.00;32.47;;;13.90;99.90;;;;;;5106222;28;20801;-71
2022/11/07 12:41:16;;;;;;;58.87;41.47;;;13.90;99.90;;;;;;5105337;28;20432;-71
2022/11/07 12:44:07;;;;;;;51.20;34.20;;;13.90;99.90;;;;;;5086942;28;21039;-71
2022/11/07 12:46:49;;;;;;;42.20;27.33;;;13.90;99.90;;;;;;5102472;28;20423;-71
2022/11/07 12:49:38;;;;;;;37.67;23.23;;;13.90;99.90;;;;;;5105804;28;20529;-71
2022/11/07 12:52:16;;;;;;;31.83;21.07;;;13.90;99.90;;;;;;5102403;28;20490;-71
2022/11/07 12:54:58;;;;;;;32.07;20.57;;;13.90;99.90;;;;;;5102064;28;20471;-71